Time;durP1;ratioP1;P1;durP2;ratioP2;P2;SDS_P1;SDS_P2;PMS_P1;PMS_P2;Temp;Humidity;BMP_temperature;BMP_pressure;BME280_temperature;BME280_humidity;BME280_pressure;Samples;Min_cycle;Max_cycle;Signal;HPM_P1;HPM_P2
2023/01/05 04:02:03;;;;;;;1.40;0.60;;;11.50;88.90;;;;;;5358160;23;20542;-78
2023/01/05 04:04:30;;;;;;;1.47;0.60;;;11.50;89.20;;;;;;4993613;28;20454;-77
2023/01/05 04:06:56;;;;;;;1.40;0.60;;;11.60;88.90;;;;;;4993477;28;20445;-77
2023/01/05 04:09:23;;;;;;;1.40;0.60;;;11.50;89.00;;;;;;4994378;28;20442;-78
2023/01/05 04:11:50;;;;;;;1.40;0.60;;;11.50;89.10;;;;;;4993410;28;20515;-77
2023/01/05 04:14:16;;;;;;;1.50;0.60;;;11.60;88.80;;;;;;4994028;28;20449;-72
2023/01/05 04:16:43;;;;;;;1.43;0.60;;;11.60;88.70;;;;;;4995909;28;20449;-74
2023/01/05 04:19:11;;;;;;;1.60;0.60;;;11.70;88.30;;;;;;4996940;28;20489;-73
2023/01/05 04:21:38;;;;;;;1.40;0.57;;;11.70;88.30;;;;;;4996951;28;20589;-73
2023/01/05 04:24:05;;;;;;;1.40;0.60;;;11.70;88.30;;;;;;4996991;28;20499;-73
2023/01/05 04:26:32;;;;;;;1.50;0.70;;;11.80;88.10;;;;;;4996887;28;20508;-73
2023/01/05 04:28:58;;;;;;;1.40;0.60;;;11.80;88.10;;;;;;4996837;28;20441;-73
2023/01/05 04:31:25;;;;;;;1.43;0.60;;;11.80;88.20;;;;;;4996658;28;20519;-73
2023/01/05 04:33:52;;;;;;;1.40;0.60;;;11.90;88.20;;;;;;4996748;28;20449;-73
2023/01/05 04:36:20;;;;;;;1.40;0.60;;;11.80;88.10;;;;;;4996705;28;20448;-73
2023/01/05 04:38:47;;;;;;;1.40;0.60;;;11.90;88.00;;;;;;4996558;28;20481;-73
2023/01/05 04:41:13;;;;;;;1.60;1.07;;;11.90;88.00;;;;;;4996543;28;20469;-73
2023/01/05 04:43:40;;;;;;;1.67;0.70;;;11.90;87.90;;;;;;4996288;28;21005;-73
2023/01/05 04:46:07;;;;;;;1.60;0.60;;;11.90;87.90;;;;;;4996178;28;20449;-74
2023/01/05 04:48:33;;;;;;;1.40;0.60;;;11.90;87.90;;;;;;4996462;28;20503;-73
2023/01/05 04:51:00;;;;;;;1.43;0.60;;;11.90;88.10;;;;;;4996327;28;20473;-73
2023/01/05 04:53:28;;;;;;;1.90;0.60;;;11.90;88.30;;;;;;4996337;28;20445;-73
2023/01/05 04:55:55;;;;;;;1.50;0.60;;;12.00;87.90;;;;;;4996360;28;20462;-73
2023/01/05 04:58:21;;;;;;;1.40;0.50;;;12.10;88.00;;;;;;4995971;28;21004;-73
2023/01/05 05:00:49;;;;;;;1.70;0.60;;;12.00;87.70;;;;;;4995993;28;20532;-74
2023/01/05 05:03:16;;;;;;;2.17;0.60;;;12.00;88.00;;;;;;4995895;28;20994;-73
2023/01/05 05:05:42;;;;;;;1.40;0.50;;;12.00;88.30;;;;;;4996164;28;20445;-73
2023/01/05 05:08:09;;;;;;;1.50;0.60;;;11.90;88.30;;;;;;4996117;28;20492;-74
2023/01/05 05:10:38;;;;;;;1.40;0.60;;;12.00;88.20;;;;;;4995953;28;20449;-73
2023/01/05 05:13:05;;;;;;;1.40;0.60;;;12.00;88.10;;;;;;4996012;28;20446;-73
2023/01/05 05:15:32;;;;;;;1.40;0.60;;;12.00;88.20;;;;;;4996010;28;20445;-74
2023/01/05 05:17:59;;;;;;;1.40;0.60;;;12.10;88.00;;;;;;4995909;28;20449;-73
2023/01/05 05:20:25;;;;;;;2.10;0.60;;;12.10;87.70;;;;;;4995708;28;20489;-74
2023/01/05 05:22:52;;;;;;;1.40;0.60;;;12.10;88.00;;;;;;4995840;28;20449;-73
2023/01/05 05:25:19;;;;;;;1.40;0.60;;;12.10;88.20;;;;;;4995801;28;20485;-73
2023/01/05 05:27:46;;;;;;;1.40;0.60;;;12.10;88.40;;;;;;4994520;28;20484;-73
2023/01/05 05:30:13;;;;;;;1.43;0.60;;;12.10;88.20;;;;;;4995371;28;20794;-74
2023/01/05 05:32:40;;;;;;;1.60;0.60;;;12.20;88.20;;;;;;4995562;28;20473;-73
2023/01/05 05:35:08;;;;;;;1.40;0.60;;;12.10;88.50;;;;;;4995618;28;20453;-73
2023/01/05 05:37:34;;;;;;;1.40;0.60;;;12.00;89.10;;;;;;4995718;28;20504;-73
2023/01/05 05:40:01;;;;;;;1.40;0.60;;;12.10;89.50;;;;;;4995509;28;20528;-73
2023/01/05 05:42:28;;;;;;;1.50;0.60;;;12.20;88.80;;;;;;4995367;28;20465;-73
2023/01/05 05:44:56;;;;;;;1.40;0.60;;;12.20;88.90;;;;;;4995364;28;20454;-73
2023/01/05 05:47:23;;;;;;;1.40;0.50;;;12.20;88.90;;;;;;4995286;28;20453;-73
2023/01/05 05:49:49;;;;;;;1.60;0.60;;;12.20;89.20;;;;;;4995282;28;20446;-73
2023/01/05 05:52:16;;;;;;;1.40;0.60;;;12.30;88.90;;;;;;4995172;28;20469;-73
2023/01/05 05:54:42;;;;;;;1.40;0.50;;;12.30;89.40;;;;;;4995165;28;20464;-73
2023/01/05 05:57:09;;;;;;;1.47;0.70;;;12.30;89.20;;;;;;4995111;28;20508;-73
2023/01/05 05:59:36;;;;;;;1.50;0.60;;;12.20;89.50;;;;;;4995030;28;20480;-73
2023/01/05 06:02:04;;;;;;;1.40;0.60;;;12.10;89.80;;;;;;4994670;28;20481;-73
2023/01/05 06:04:30;;;;;;;1.40;0.60;;;12.10;89.90;;;;;;4994694;28;20510;-73
2023/01/05 06:06:57;;;;;;;1.40;0.60;;;12.20;90.10;;;;;;4994684;28;20477;-73
2023/01/05 06:09:24;;;;;;;1.87;0.60;;;12.30;89.80;;;;;;4994901;28;20442;-73
2023/01/05 06:11:51;;;;;;;1.50;0.60;;;12.40;89.50;;;;;;4994799;28;20564;-73
2023/01/05 06:14:18;;;;;;;1.40;0.60;;;12.40;89.30;;;;;;4994815;28;20508;-73
2023/01/05 06:16:45;;;;;;;2.77;0.60;;;12.40;89.40;;;;;;4994768;28;20500;-73
2023/01/05 06:19:13;;;;;;;1.47;0.60;;;12.40;89.40;;;;;;4994671;28;20491;-73
2023/01/05 06:21:40;;;;;;;1.87;0.80;;;12.30;89.60;;;;;;4994881;28;20473;-73
2023/01/05 06:24:07;;;;;;;1.60;0.70;;;12.20;89.70;;;;;;4994800;28;20453;-73
2023/01/05 06:26:33;;;;;;;1.40;0.60;;;12.30;89.90;;;;;;4994658;28;20495;-73
2023/01/05 06:29:00;;;;;;;1.87;0.60;;;12.40;89.60;;;;;;4994337;28;20445;-73
2023/01/05 06:31:27;;;;;;;1.40;0.60;;;12.40;89.30;;;;;;4994492;28;20473;-73
2023/01/05 06:33:54;;;;;;;1.40;0.60;;;12.50;89.10;;;;;;4994498;28;20449;-73
2023/01/05 06:36:22;;;;;;;1.50;0.60;;;12.40;89.10;;;;;;4994424;28;20477;-73
2023/01/05 06:38:48;;;;;;;1.43;0.60;;;12.30;89.50;;;;;;4994009;28;20461;-73
2023/01/05 06:41:15;;;;;;;1.40;0.60;;;12.40;89.50;;;;;;4994186;28;20500;-73
2023/01/05 06:43:42;;;;;;;1.40;0.60;;;12.40;89.20;;;;;;4994352;28;20519;-73
2023/01/05 06:46:08;;;;;;;1.40;0.57;;;12.30;89.40;;;;;;4994161;28;20508;-74
2023/01/05 06:48:35;;;;;;;1.50;0.60;;;12.30;89.50;;;;;;4994262;28;20458;-73
2023/01/05 06:51:01;;;;;;;1.40;0.57;;;12.30;89.40;;;;;;4993824;28;20891;-73
2023/01/05 06:53:29;;;;;;;1.73;0.70;;;12.30;89.30;;;;;;4994204;28;20472;-73
2023/01/05 06:55:56;;;;;;;1.53;0.70;;;12.20;89.10;;;;;;4994145;28;20900;-73
2023/01/05 06:58:23;;;;;;;1.90;0.70;;;12.00;89.40;;;;;;4993859;28;20445;-73
2023/01/05 07:00:49;;;;;;;1.70;0.60;;;11.90;89.20;;;;;;4993686;28;20571;-74
2023/01/05 07:03:16;;;;;;;1.60;0.67;;;11.80;90.00;;;;;;4994108;28;20438;-73
2023/01/05 07:05:43;;;;;;;1.70;0.70;;;11.60;90.20;;;;;;4994037;28;20512;-74
2023/01/05 07:08:09;;;;;;;2.10;0.70;;;11.50;90.90;;;;;;4993682;28;20453;-73
2023/01/05 07:10:37;;;;;;;2.10;0.67;;;11.50;91.10;;;;;;4993660;28;20449;-74
2023/01/05 07:13:04;;;;;;;1.53;0.70;;;11.60;91.10;;;;;;4993880;28;20441;-73
2023/01/05 07:15:31;;;;;;;1.60;0.70;;;11.60;90.80;;;;;;4993897;28;20445;-73
2023/01/05 07:17:57;;;;;;;2.20;0.87;;;11.50;90.70;;;;;;4993838;28;20500;-73
2023/01/05 07:20:24;;;;;;;1.90;0.80;;;11.50;90.80;;;;;;4993742;28;20481;-74
2023/01/05 07:22:51;;;;;;;1.43;0.67;;;11.50;90.90;;;;;;4993451;28;20950;-73
2023/01/05 07:25:17;;;;;;;2.17;1.53;;;11.50;90.90;;;;;;4993746;28;20449;-73
2023/01/05 07:27:50;;;;;;;1.70;0.70;;;11.50;91.10;;;;;;4993789;28;20446;-73
2023/01/05 07:30:17;;;;;;;1.70;0.80;;;11.70;91.10;;;;;;4994295;28;20517;-76
2023/01/05 07:32:44;;;;;;;1.90;0.70;;;11.80;90.50;;;;;;4993440;28;20871;-75
2023/01/05 07:35:11;;;;;;;1.63;0.90;;;11.90;89.90;;;;;;4993327;28;21005;-75
2023/01/05 07:37:37;;;;;;;2.00;0.70;;;12.00;89.50;;;;;;4993401;28;20875;-75
2023/01/05 07:40:05;;;;;;;1.67;0.80;;;11.90;88.90;;;;;;4993570;28;20484;-75
2023/01/05 07:42:33;;;;;;;2.60;1.13;;;11.80;89.00;;;;;;4993254;28;20873;-76
2023/01/05 07:45:01;;;;;;;3.00;0.90;;;11.90;88.80;;;;;;4993656;28;20446;-75
2023/01/05 07:47:27;;;;;;;2.00;0.90;;;11.90;89.00;;;;;;4993507;28;20457;-75
2023/01/05 07:49:54;;;;;;;1.70;0.90;;;12.00;88.20;;;;;;4993595;28;20476;-76
2023/01/05 07:52:21;;;;;;;1.73;0.80;;;12.10;88.10;;;;;;4997102;28;20528;-75
2023/01/05 07:54:47;;;;;;;2.70;1.10;;;12.00;88.10;;;;;;4997283;28;20460;-76
2023/01/05 07:57:14;;;;;;;1.70;0.90;;;12.00;87.70;;;;;;4997245;28;20456;-76
2023/01/05 07:59:41;;;;;;;2.13;1.23;;;12.00;87.60;;;;;;4997224;28;20535;-76
2023/01/05 08:02:10;;;;;;;3.00;1.30;;;12.10;87.60;;;;;;4996858;28;20531;-75
2023/01/05 08:04:37;;;;;;;2.23;0.93;;;12.10;87.20;;;;;;4997434;28;20536;-74
2023/01/05 08:07:08;;;;;;;1.57;0.80;;;12.20;86.90;;;;;;4998448;28;20455;-74
2023/01/05 08:12:19;;;;;;;2.63;0.80;;;12.40;85.80;;;;;;4999088;28;20500;-74
2023/01/05 08:14:46;;;;;;;2.50;0.93;;;12.40;85.80;;;;;;4999434;28;20528;-74
2023/01/05 08:17:14;;;;;;;2.30;1.00;;;12.30;85.70;;;;;;4999010;28;20455;-74
2023/01/05 08:19:41;;;;;;;1.80;1.00;;;12.40;85.30;;;;;;4998623;28;20449;-74
2023/01/05 08:22:08;;;;;;;2.50;1.30;;;12.40;85.10;;;;;;4997236;28;20465;-74
2023/01/05 08:24:34;;;;;;;2.83;1.10;;;12.50;84.20;;;;;;4996817;28;20449;-74
2023/01/05 08:27:01;;;;;;;1.90;0.97;;;12.40;83.60;;;;;;4996740;28;20458;-74
2023/01/05 08:29:28;;;;;;;3.30;1.43;;;12.30;83.10;;;;;;4996418;28;20450;-74
2023/01/05 08:31:55;;;;;;;2.03;0.90;;;12.20;83.40;;;;;;4996626;28;20468;-74
2023/01/05 08:34:23;;;;;;;1.90;1.00;;;12.20;83.20;;;;;;4996651;28;20499;-74
2023/01/05 08:36:50;;;;;;;2.20;1.20;;;12.10;83.60;;;;;;4996611;28;20454;-74
2023/01/05 08:39:16;;;;;;;2.50;1.17;;;12.00;83.30;;;;;;4996567;28;20508;-74
2023/01/05 08:41:43;;;;;;;3.70;1.30;;;12.00;83.80;;;;;;4996410;28;20485;-74
2023/01/05 08:44:12;;;;;;;3.70;1.60;;;11.90;83.50;;;;;;4996484;28;20449;-74
2023/01/05 08:46:39;;;;;;;4.70;2.93;;;11.80;83.00;;;;;;4996428;28;20452;-74
2023/01/05 08:49:08;;;;;;;2.83;1.63;;;11.80;83.20;;;;;;4996354;28;20449;-74
2023/01/05 08:51:37;;;;;;;4.27;1.40;;;11.80;83.40;;;;;;4996311;28;20472;-74
2023/01/05 08:54:03;;;;;;;2.43;1.40;;;11.70;83.20;;;;;;4996389;28;20467;-75
2023/01/05 08:56:30;;;;;;;3.47;1.30;;;11.70;83.40;;;;;;4995967;28;20453;-74
2023/01/05 08:58:57;;;;;;;2.33;1.10;;;11.70;83.30;;;;;;4996201;28;20454;-74
2023/01/05 09:01:25;;;;;;;2.23;1.20;;;11.70;82.50;;;;;;4995258;28;21042;-74
2023/01/05 09:03:51;;;;;;;1.87;1.10;;;11.70;82.80;;;;;;4996143;28;20446;-74
2023/01/05 09:06:19;;;;;;;3.50;1.20;;;11.80;82.50;;;;;;4996036;28;20453;-74
2023/01/05 09:08:47;;;;;;;2.90;1.67;;;11.80;82.60;;;;;;4995696;28;20951;-74
2023/01/05 09:11:16;;;;;;;4.80;1.87;;;11.70;82.60;;;;;;4995884;28;20465;-75
2023/01/05 09:13:47;;;;;;;3.70;1.50;;;11.70;82.00;;;;;;4995919;28;20454;-75
2023/01/05 09:16:16;;;;;;;3.30;1.60;;;11.60;82.30;;;;;;4995602;28;20856;-75
2023/01/05 09:18:43;;;;;;;3.90;1.70;;;11.70;82.10;;;;;;4995815;28;20480;-75
2023/01/05 09:21:10;;;;;;;3.97;2.17;;;11.70;82.30;;;;;;4995679;28;20492;-75
2023/01/05 09:23:38;;;;;;;4.67;1.53;;;11.60;82.00;;;;;;4995729;28;20802;-74
2023/01/05 09:26:07;;;;;;;5.30;2.27;;;11.50;81.80;;;;;;4995768;28;20456;-75
2023/01/05 09:28:35;;;;;;;3.20;1.80;;;11.50;81.80;;;;;;4995663;28;20496;-75
2023/01/05 09:31:07;;;;;;;4.33;1.77;;;11.50;81.50;;;;;;4995582;28;20564;-74
2023/01/05 09:33:33;;;;;;;5.00;2.13;;;11.50;81.60;;;;;;4995698;28;20438;-75
2023/01/05 09:36:00;;;;;;;3.10;1.97;;;11.50;81.30;;;;;;4995579;28;20445;-75
2023/01/05 09:38:27;;;;;;;4.97;2.10;;;11.50;81.10;;;;;;4995508;28;20452;-75
2023/01/05 09:40:57;;;;;;;4.30;3.13;;;11.60;80.10;;;;;;4995033;28;21013;-75
2023/01/05 09:43:28;;;;;;;4.87;2.03;;;11.60;80.00;;;;;;4995635;28;20438;-75
2023/01/05 09:45:56;;;;;;;4.53;1.73;;;11.70;79.80;;;;;;4995466;28;20437;-75
2023/01/05 09:48:25;;;;;;;4.73;2.67;;;11.70;79.90;;;;;;4995297;28;20802;-75
2023/01/05 09:50:52;;;;;;;7.00;2.07;;;11.80;79.10;;;;;;4995212;28;20523;-74
2023/01/05 09:53:27;;;;;;;3.23;1.97;;;11.80;78.50;;;;;;4995207;28;20527;-74
2023/01/05 09:55:54;;;;;;;4.53;2.00;;;11.80;78.00;;;;;;4995259;28;20433;-75
2023/01/05 09:58:26;;;;;;;4.07;1.80;;;11.70;78.40;;;;;;4995158;28;20445;-74
2023/01/05 10:01:04;;;;;;;3.37;2.00;;;11.80;78.50;;;;;;4994711;28;20521;-75
2023/01/05 10:03:31;;;;;;;5.50;2.10;;;11.70;78.30;;;;;;4994763;28;20480;-74
2023/01/05 10:05:59;;;;;;;4.90;2.23;;;11.80;78.50;;;;;;4994985;28;20452;-74
2023/01/05 10:08:35;;;;;;;4.80;1.93;;;11.80;77.90;;;;;;4994891;28;20457;-74
2023/01/05 10:13:59;;;;;;;4.73;2.30;;;12.00;77.90;;;;;;4995110;28;20537;-74
2023/01/05 10:16:28;;;;;;;6.37;3.40;;;12.20;76.90;;;;;;4995693;28;20867;-74
2023/01/05 10:18:55;;;;;;;8.23;3.30;;;12.10;77.10;;;;;;4996463;28;20520;-73
2023/01/05 10:21:30;;;;;;;5.30;2.13;;;12.10;76.40;;;;;;4995294;28;20528;-73
2023/01/05 10:24:13;;;;;;;8.77;2.57;;;12.10;76.50;;;;;;4994841;28;20437;-73
2023/01/05 10:26:45;;;;;;;5.03;1.60;;;12.20;76.90;;;;;;4994935;28;20433;-74
2023/01/05 10:29:15;;;;;;;3.30;2.20;;;12.20;76.10;;;;;;4994900;28;20863;-72
2023/01/05 10:31:51;;;;;;;3.33;1.63;;;12.30;75.80;;;;;;4994838;28;20985;-74
2023/01/05 10:34:23;;;;;;;3.40;1.60;;;12.30;75.80;;;;;;4994978;28;20440;-73
2023/01/05 10:37:06;;;;;;;2.97;1.90;;;12.30;76.30;;;;;;4994509;28;20445;-74
2023/01/05 10:39:54;;;;;;;7.67;2.20;;;12.20;75.60;;;;;;4994418;28;20434;-73
2023/01/05 10:42:46;;;;;;;6.27;2.40;;;12.20;75.70;;;;;;4993905;28;21056;-73
2023/01/05 10:45:14;;;;;;;6.10;2.43;;;12.40;75.20;;;;;;4994025;28;20520;-74
2023/01/05 10:47:43;;;;;;;2.73;1.47;;;12.40;75.30;;;;;;4994216;28;20460;-72
2023/01/05 10:50:27;;;;;;;3.10;1.40;;;12.50;74.50;;;;;;4993850;28;20445;-74
2023/01/05 10:52:54;;;;;;;4.10;1.50;;;12.50;74.10;;;;;;4994215;28;20433;-74
2023/01/05 10:55:22;;;;;;;2.97;1.60;;;12.50;74.50;;;;;;4993752;28;20877;-74
2023/01/05 10:57:49;;;;;;;4.50;1.93;;;12.60;74.60;;;;;;4994143;28;20445;-74
2023/01/05 11:00:18;;;;;;;3.10;1.83;;;12.50;74.20;;;;;;4993642;28;20813;-73
2023/01/05 11:02:50;;;;;;;3.97;2.00;;;12.60;74.50;;;;;;4993663;28;20981;-72
2023/01/05 11:05:30;;;;;;;4.60;1.90;;;12.70;74.60;;;;;;4994048;28;20440;-73
2023/01/05 11:07:59;;;;;;;3.70;1.80;;;12.80;74.80;;;;;;4994051;28;20429;-74
2023/01/05 11:10:30;;;;;;;3.90;1.90;;;12.70;73.70;;;;;;4993833;28;20457;-74
2023/01/05 11:13:03;;;;;;;7.63;2.70;;;12.80;74.30;;;;;;4993983;28;20433;-74
2023/01/05 11:15:33;;;;;;;4.17;1.60;;;12.90;73.60;;;;;;4993891;28;20441;-74
2023/01/05 11:18:02;;;;;;;4.10;2.23;;;12.90;72.60;;;;;;4993859;28;20448;-73
2023/01/05 11:20:29;;;;;;;5.60;3.17;;;12.80;72.90;;;;;;4994048;28;20985;-73
2023/01/05 11:22:55;;;;;;;3.17;1.70;;;12.80;73.00;;;;;;4994163;28;20481;-74
2023/01/05 11:25:30;;;;;;;4.20;2.17;;;12.70;73.00;;;;;;4996404;28;20449;-73
2023/01/05 11:28:10;;;;;;;5.17;1.80;;;12.60;72.50;;;;;;4998130;28;20484;-74
2023/01/05 11:30:39;;;;;;;4.70;1.90;;;12.40;73.00;;;;;;4997947;28;20452;-74
2023/01/05 11:33:14;;;;;;;3.50;1.60;;;12.40;73.20;;;;;;4997959;28;20797;-74
2023/01/05 11:35:43;;;;;;;3.80;2.13;;;12.30;73.10;;;;;;4997920;28;20515;-74
2023/01/05 11:38:22;;;;;;;5.43;2.20;;;12.20;73.20;;;;;;4997891;28;20449;-74
2023/01/05 11:40:49;;;;;;;4.93;2.50;;;12.20;73.20;;;;;;4997899;28;20500;-74
2023/01/05 11:43:18;;;;;;;3.13;1.83;;;12.20;73.30;;;;;;4997477;28;20981;-75
2023/01/05 11:45:49;;;;;;;3.00;2.03;;;12.20;73.30;;;;;;4997742;28;20935;-75
2023/01/05 11:48:20;;;;;;;4.73;1.80;;;12.30;72.80;;;;;;5000279;28;20444;-75
2023/01/05 11:50:49;;;;;;;6.13;2.20;;;12.30;73.10;;;;;;4997380;28;20552;-75
2023/01/05 11:53:26;;;;;;;3.00;1.77;;;12.20;72.40;;;;;;4997404;28;20445;-74
2023/01/05 11:56:01;;;;;;;4.60;2.10;;;12.30;73.30;;;;;;4996935;28;20449;-75
2023/01/05 11:58:32;;;;;;;3.70;1.70;;;12.40;72.60;;;;;;4997066;28;20905;-75
2023/01/05 12:01:18;;;;;;;5.63;2.33;;;12.50;72.30;;;;;;4997169;28;20850;-75
2023/01/05 12:04:00;;;;;;;4.33;1.83;;;12.50;72.30;;;;;;4998051;28;20459;-75
2023/01/05 12:06:48;;;;;;;2.50;1.33;;;12.50;72.20;;;;;;4998249;28;20441;-75
2023/01/05 12:09:23;;;;;;;7.03;1.80;;;12.50;71.60;;;;;;4998416;28;20449;-75
2023/01/05 12:11:58;;;;;;;3.97;1.90;;;12.50;72.30;;;;;;4997455;28;21005;-75
2023/01/05 12:14:41;;;;;;;4.83;2.50;;;12.50;72.40;;;;;;4997617;28;20447;-75
2023/01/05 12:17:13;;;;;;;7.20;1.90;;;12.60;72.00;;;;;;4997337;28;20437;-75
2023/01/05 12:19:53;;;;;;;2.70;1.93;;;12.70;72.20;;;;;;4997299;28;20476;-74
2023/01/05 12:23:01;;;;;;;4.87;2.10;;;12.70;71.60;;;;;;4997096;28;20489;-74
2023/01/05 12:25:38;;;;;;;3.70;1.90;;;12.70;71.80;;;;;;4937213;29;20435;-75
2023/01/05 12:28:26;;;;;;;6.00;2.10;;;12.70;72.40;;;;;;4937339;29;20448;-75
2023/01/05 12:30:59;;;;;;;3.40;2.23;;;12.80;72.10;;;;;;4979530;28;20476;-76
2023/01/05 12:33:53;;;;;;;4.83;2.30;;;12.80;72.10;;;;;;4996938;28;20445;-75
2023/01/05 12:36:32;;;;;;;5.10;1.87;;;12.70;72.10;;;;;;4996411;28;20437;-75
2023/01/05 12:39:16;;;;;;;7.13;2.50;;;12.70;72.30;;;;;;4996764;28;20939;-76
2023/01/05 12:41:58;;;;;;;4.57;2.17;;;12.70;72.40;;;;;;4997190;28;20489;-75
2023/01/05 12:44:45;;;;;;;4.27;2.93;;;12.70;72.50;;;;;;4997939;28;20414;-76
2023/01/05 12:47:24;;;;;;;4.43;2.30;;;12.70;72.80;;;;;;4997744;28;20442;-75
2023/01/05 12:49:56;;;;;;;4.60;2.13;;;12.60;72.70;;;;;;4998444;28;20449;-76
2023/01/05 12:52:31;;;;;;;6.27;3.03;;;12.60;72.90;;;;;;4997126;28;20485;-75
2023/01/05 12:55:06;;;;;;;5.17;3.03;;;12.60;72.70;;;;;;4998374;28;20457;-77
2023/01/05 12:57:36;;;;;;;4.43;2.00;;;12.60;73.10;;;;;;4998027;28;20441;-74
2023/01/05 13:00:10;;;;;;;2.90;1.60;;;12.60;73.10;;;;;;4999712;28;20441;-75
2023/01/05 13:02:39;;;;;;;6.70;2.40;;;12.60;73.40;;;;;;4997995;28;20489;-74
2023/01/05 13:05:16;;;;;;;4.83;2.20;;;12.60;72.90;;;;;;4997828;28;20453;-74
2023/01/05 13:07:50;;;;;;;5.77;2.37;;;12.60;73.10;;;;;;4996895;28;20438;-73
2023/01/05 13:10:22;;;;;;;2.67;2.00;;;12.60;73.20;;;;;;4996398;28;20434;-74
2023/01/05 13:12:55;;;;;;;5.47;2.57;;;12.70;72.70;;;;;;4996486;28;20437;-72
2023/01/05 13:15:28;;;;;;;5.20;2.80;;;12.80;73.00;;;;;;4997664;28;20457;-73
2023/01/05 13:17:57;;;;;;;8.63;2.80;;;12.80;72.70;;;;;;4996664;28;20900;-73
2023/01/05 13:20:30;;;;;;;3.17;2.00;;;12.90;72.40;;;;;;4996095;28;20924;-72
2023/01/05 13:23:04;;;;;;;4.47;2.40;;;12.90;72.40;;;;;;4996706;28;20470;-73
2023/01/05 13:25:39;;;;;;;3.10;1.70;;;12.90;71.90;;;;;;4996256;28;20422;-73
2023/01/05 13:28:05;;;;;;;5.23;2.53;;;12.80;72.40;;;;;;4996788;28;20436;-73
2023/01/05 13:30:38;;;;;;;3.33;1.90;;;12.80;72.40;;;;;;4995527;28;20459;-73
2023/01/05 13:33:34;;;;;;;4.13;2.37;;;12.80;72.20;;;;;;4996611;28;20442;-73
2023/01/05 13:36:14;;;;;;;5.60;2.17;;;12.80;72.50;;;;;;4996636;28;20437;-73
2023/01/05 13:39:17;;;;;;;4.00;2.20;;;12.60;72.60;;;;;;4996404;28;20441;-73
2023/01/05 13:42:03;;;;;;;3.30;1.83;;;12.60;72.90;;;;;;4996924;28;20484;-74
2023/01/05 13:44:59;;;;;;;4.50;2.60;;;12.60;73.10;;;;;;4997258;28;20516;-74
2023/01/05 13:47:53;;;;;;;6.40;2.60;;;12.60;73.20;;;;;;4996589;28;20449;-75
2023/01/05 13:50:49;;;;;;;5.00;2.37;;;12.70;73.40;;;;;;4996523;28;20478;-72
2023/01/05 13:53:19;;;;;;;3.20;2.20;;;12.80;73.10;;;;;;4998011;28;20457;-74
2023/01/05 13:55:52;;;;;;;7.47;2.60;;;12.90;73.10;;;;;;4996035;28;20426;-74
2023/01/05 13:58:39;;;;;;;6.47;2.87;;;12.90;72.60;;;;;;4995776;28;20907;-74
2023/01/05 14:01:09;;;;;;;5.70;1.90;;;12.90;72.50;;;;;;4996371;28;20990;-75
2023/01/05 14:03:38;;;;;;;5.13;1.90;;;12.80;72.50;;;;;;4996815;28;20484;-75
2023/01/05 14:06:14;;;;;;;5.90;2.57;;;12.80;72.70;;;;;;4995868;28;20540;-74
2023/01/05 14:08:46;;;;;;;5.77;2.60;;;12.80;72.60;;;;;;4994730;28;20437;-73
2023/01/05 14:11:16;;;;;;;6.10;3.30;;;12.90;72.50;;;;;;4994797;28;20473;-74
2023/01/05 14:13:49;;;;;;;6.10;2.80;;;12.80;72.60;;;;;;4996937;28;20516;-73
2023/01/05 14:16:48;;;;;;;4.10;2.63;;;12.70;72.80;;;;;;4997107;28;20442;-73
2023/01/05 14:19:21;;;;;;;7.90;3.23;;;12.70;72.70;;;;;;4995970;28;20452;-74
2023/01/05 14:22:32;;;;;;;5.50;2.33;;;12.50;73.00;;;;;;4995271;28;20489;-73
2023/01/05 14:25:19;;;;;;;5.67;3.00;;;12.50;73.80;;;;;;4995752;28;20450;-74
2023/01/05 14:28:28;;;;;;;6.87;3.13;;;12.40;73.60;;;;;;4994858;28;20436;-73
2023/01/05 14:31:35;;;;;;;5.30;3.10;;;12.50;73.80;;;;;;4959863;28;20597;-74
2023/01/05 14:34:06;;;;;;;4.50;3.37;;;12.50;73.50;;;;;;4995385;28;20492;-73
2023/01/05 14:36:36;;;;;;;4.20;3.00;;;12.50;73.50;;;;;;4995668;28;20457;-73
2023/01/05 14:39:05;;;;;;;6.20;3.20;;;12.50;73.60;;;;;;4995168;28;20445;-73
2023/01/05 14:41:33;;;;;;;4.50;2.20;;;12.50;73.70;;;;;;4994522;28;20475;-73
2023/01/05 14:44:03;;;;;;;3.80;1.90;;;12.50;73.60;;;;;;4995197;28;20455;-73
2023/01/05 14:46:46;;;;;;;4.73;1.90;;;12.60;73.30;;;;;;4995254;28;20445;-73
2023/01/05 14:49:29;;;;;;;5.50;2.27;;;12.60;73.50;;;;;;4994966;28;20589;-74
2023/01/05 14:51:58;;;;;;;4.70;2.40;;;12.60;73.30;;;;;;4996078;28;20477;-74
2023/01/05 14:55:18;;;;;;;3.80;2.30;;;12.60;73.70;;;;;;4994746;28;20449;-73
2023/01/05 14:57:50;;;;;;;4.03;2.50;;;12.70;73.10;;;;;;4995572;28;20473;-73
2023/01/05 15:00:23;;;;;;;4.30;2.70;;;12.80;72.60;;;;;;4994067;28;20448;-74
2023/01/05 15:03:01;;;;;;;5.23;2.97;;;12.90;72.70;;;;;;4993854;28;20584;-74
2023/01/05 15:05:28;;;;;;;5.70;2.23;;;12.90;72.90;;;;;;4994916;28;20537;-74
2023/01/05 15:08:07;;;;;;;3.90;2.70;;;12.90;72.90;;;;;;4994084;28;20951;-73
2023/01/05 15:10:54;;;;;;;6.13;2.77;;;13.00;72.70;;;;;;4994069;28;20457;-74
2023/01/05 15:14:33;;;;;;;4.60;2.33;;;13.00;72.20;;;;;;4994381;28;20461;-73
2023/01/05 15:17:22;;;;;;;8.47;2.70;;;12.90;72.70;;;;;;4934304;29;20539;-72
2023/01/05 15:20:14;;;;;;;4.40;2.77;;;12.70;72.70;;;;;;4934042;29;20436;-74
2023/01/05 15:23:03;;;;;;;5.07;2.50;;;12.60;73.50;;;;;;4994002;28;20481;-74
2023/01/05 15:26:00;;;;;;;4.80;2.37;;;12.60;73.60;;;;;;4981427;28;20460;-74
2023/01/05 15:28:52;;;;;;;6.90;2.73;;;12.50;74.00;;;;;;4994585;28;20464;-73
2023/01/05 15:31:33;;;;;;;4.93;1.90;;;12.60;74.20;;;;;;4993955;28;20466;-74
2023/01/05 15:34:11;;;;;;;4.37;2.30;;;12.60;74.20;;;;;;4993523;28;20422;-74
2023/01/05 15:36:47;;;;;;;4.97;2.20;;;12.80;74.00;;;;;;4994030;28;20437;-74
2023/01/05 15:39:29;;;;;;;4.10;2.40;;;12.80;73.80;;;;;;4993705;28;20440;-75
2023/01/05 15:41:59;;;;;;;5.03;1.90;;;12.70;74.10;;;;;;4993605;28;20473;-74
2023/01/05 15:44:48;;;;;;;4.00;2.30;;;12.70;74.10;;;;;;4993703;28;20504;-75
2023/01/05 15:47:17;;;;;;;4.93;2.67;;;12.80;74.10;;;;;;4993645;28;20442;-73
2023/01/05 15:49:44;;;;;;;4.73;1.90;;;12.90;74.10;;;;;;4993531;28;20500;-74
2023/01/05 15:52:27;;;;;;;4.67;2.60;;;12.90;73.50;;;;;;4993515;28;20801;-74
2023/01/05 15:54:59;;;;;;;4.17;2.30;;;12.80;74.10;;;;;;4993762;28;20430;-74
2023/01/05 15:57:26;;;;;;;3.67;2.00;;;12.60;74.50;;;;;;4993473;28;20453;-74
2023/01/05 15:59:53;;;;;;;3.40;2.10;;;12.50;74.90;;;;;;4993402;28;20552;-75
2023/01/05 16:02:24;;;;;;;3.33;1.90;;;12.60;75.00;;;;;;4992886;28;20552;-75
2023/01/05 16:05:11;;;;;;;3.00;1.70;;;12.70;74.80;;;;;;4993509;28;20516;-75
2023/01/05 16:07:44;;;;;;;2.97;1.80;;;12.80;74.40;;;;;;4993890;28;20456;-78
2023/01/05 16:10:27;;;;;;;5.20;2.30;;;12.70;74.60;;;;;;4993466;28;20433;-77
2023/01/05 16:12:58;;;;;;;3.83;2.37;;;12.80;74.60;;;;;;4996206;28;20430;-77
2023/01/05 16:15:26;;;;;;;3.37;2.03;;;12.70;74.60;;;;;;5005195;23;20504;-76
2023/01/05 16:17:56;;;;;;;3.50;2.20;;;12.50;75.40;;;;;;4996811;28;21016;-77
2023/01/05 16:20:25;;;;;;;4.03;2.53;;;12.60;75.60;;;;;;4997209;28;20436;-75
2023/01/05 16:22:59;;;;;;;4.20;2.30;;;12.60;75.20;;;;;;4997073;28;20543;-75
2023/01/05 16:25:28;;;;;;;3.70;2.43;;;12.60;75.50;;;;;;4996997;28;20531;-76
2023/01/05 16:28:02;;;;;;;4.57;2.73;;;12.60;75.80;;;;;;4996920;28;20453;-75
2023/01/05 16:30:32;;;;;;;5.70;2.33;;;12.50;75.80;;;;;;4997020;28;20465;-75
2023/01/05 16:33:02;;;;;;;3.90;1.83;;;12.50;76.00;;;;;;4997244;28;20528;-75
2023/01/05 16:35:41;;;;;;;5.63;2.13;;;12.60;76.10;;;;;;4996851;28;20477;-76
2023/01/05 16:38:22;;;;;;;5.27;3.23;;;12.60;76.00;;;;;;4996820;28;20495;-75
2023/01/05 16:41:11;;;;;;;5.53;2.00;;;12.50;76.20;;;;;;4996338;28;20963;-76
2023/01/05 16:43:43;;;;;;;5.13;2.23;;;12.50;76.00;;;;;;4994176;28;20473;-74
2023/01/05 16:46:30;;;;;;;4.87;2.20;;;12.50;76.50;;;;;;4996600;28;20552;-75
2023/01/05 16:49:00;;;;;;;4.20;2.20;;;12.50;76.30;;;;;;4996475;28;20476;-72
2023/01/05 16:51:38;;;;;;;3.57;2.23;;;12.60;76.20;;;;;;4996090;28;20873;-75
2023/01/05 16:54:14;;;;;;;6.87;2.77;;;12.50;76.40;;;;;;4996486;28;20434;-75
2023/01/05 16:56:54;;;;;;;4.73;3.13;;;12.60;76.20;;;;;;4996335;28;20444;-76
2023/01/05 16:59:41;;;;;;;4.97;3.27;;;12.60;76.30;;;;;;4997373;28;20532;-75
2023/01/05 17:02:28;;;;;;;4.77;2.30;;;12.70;76.00;;;;;;4996572;28;20437;-76
2023/01/05 17:04:54;;;;;;;5.40;2.40;;;12.50;76.50;;;;;;4996627;28;20461;-75
2023/01/05 17:07:21;;;;;;;5.47;2.23;;;12.40;76.70;;;;;;4996614;28;20445;-77
2023/01/05 17:09:50;;;;;;;4.27;2.50;;;12.40;76.90;;;;;;4996947;28;20453;-77
2023/01/05 17:12:17;;;;;;;5.30;2.23;;;12.50;77.00;;;;;;4996211;28;20868;-75
2023/01/05 17:14:45;;;;;;;4.00;2.10;;;12.40;77.10;;;;;;4996248;28;20588;-75
2023/01/05 17:17:12;;;;;;;3.60;2.17;;;12.30;77.10;;;;;;4996362;28;20432;-75
2023/01/05 17:19:39;;;;;;;7.97;2.73;;;12.30;77.30;;;;;;4996125;28;20442;-76
2023/01/05 17:22:08;;;;;;;4.47;2.10;;;12.40;77.40;;;;;;4995689;28;20997;-76